createdAt,value
2018-08-10T00:00:56.959Z,0
2018-08-10T00:01:57.204Z,0
2018-08-10T00:02:56.930Z,0
2018-08-10T00:03:57.181Z,0
2018-08-10T00:04:57.170Z,0
2018-08-10T00:05:56.900Z,0
2018-08-10T00:06:56.884Z,0
2018-08-10T00:07:56.875Z,0
2018-08-10T00:08:57.626Z,0
2018-08-10T00:09:57.374Z,0
2018-08-10T00:10:56.570Z,0
2018-08-10T00:11:56.827Z,0
2018-08-10T00:12:56.543Z,0
2018-08-10T00:13:56.803Z,0
2018-08-10T00:14:57.055Z,0
2018-08-10T00:15:56.775Z,0
2018-08-10T00:16:57.026Z,0
2018-08-10T00:17:57.281Z,0
2018-08-10T00:18:56.738Z,0
2018-08-10T00:19:56.733Z,0
2018-08-10T00:20:56.713Z,0
2018-08-10T00:21:57.234Z,0
2018-08-10T00:22:56.948Z,0
2018-08-10T00:23:56.950Z,0
2018-08-10T00:24:56.928Z,0
2018-08-10T00:25:56.393Z,0
2018-08-10T00:26:57.168Z,0
2018-08-10T00:27:56.911Z,0
2018-08-10T00:28:56.888Z,0
2018-08-10T00:29:56.870Z,0
2018-08-10T00:30:56.868Z,0
2018-08-10T00:31:57.111Z,0
2018-08-10T00:32:56.568Z,0
2018-08-10T00:33:56.830Z,0
2018-08-10T00:34:56.753Z,0
2018-08-10T00:35:56.536Z,0
2018-08-10T00:36:56.802Z,0
2018-08-10T00:37:56.508Z,0
2018-08-10T00:38:56.494Z,0
2018-08-10T00:39:57.019Z,0
2018-08-10T00:40:56.478Z,0
2018-08-10T00:41:56.200Z,0
2018-08-10T00:42:56.450Z,0
2018-08-10T00:43:56.704Z,0
2018-08-10T00:44:56.430Z,0
2018-08-10T00:45:56.679Z,0
2018-08-10T00:46:56.406Z,0
2018-08-10T00:47:56.389Z,0
2018-08-10T00:48:56.643Z,0
2018-08-10T00:49:56.363Z,0
2018-08-10T00:50:56.360Z,0
2018-08-10T00:51:56.346Z,0
2018-08-10T00:52:56.607Z,0
2018-08-10T00:53:56.579Z,0
2018-08-10T00:54:56.578Z,0
2018-08-10T00:55:56.871Z,0
2018-08-10T00:56:56.813Z,0
2018-08-10T00:57:56.535Z,0
2018-08-10T00:58:56.517Z,0
2018-08-10T00:59:55.980Z,0
2018-08-10T01:00:56.497Z,0
2018-08-10T01:01:56.486Z,0
2018-08-10T01:02:56.205Z,0
2018-08-10T01:03:56.206Z,0
2018-08-10T01:04:56.719Z,0
2018-08-10T01:05:56.460Z,0
2018-08-10T01:06:56.686Z,0
2018-08-10T01:07:55.908Z,0
2018-08-10T01:08:55.871Z,0
2018-08-10T01:09:56.121Z,0
2018-08-10T01:10:56.108Z,0
2018-08-10T01:11:56.359Z,0
2018-08-10T01:12:56.348Z,0
2018-08-10T01:13:56.341Z,0
2018-08-10T01:14:56.326Z,0
2018-08-10T01:15:56.581Z,0
2018-08-10T01:16:56.583Z,0
2018-08-10T01:17:56.295Z,0
2018-08-10T01:18:56.406Z,0
2018-08-10T01:19:56.007Z,0
2018-08-10T01:20:56.306Z,0
2018-08-10T01:21:55.719Z,0
2018-08-10T01:22:55.985Z,0
2018-08-10T01:23:56.218Z,0
2018-08-10T01:24:56.213Z,0
2018-08-10T01:25:55.938Z,0
2018-08-10T01:26:56.173Z,0
2018-08-10T01:27:56.166Z,0
2018-08-10T01:28:56.261Z,0
2018-08-10T01:29:56.138Z,0
2018-08-10T01:30:56.126Z,0
2018-08-10T01:31:56.119Z,0
2018-08-10T01:32:56.377Z,0
2018-08-10T01:33:56.380Z,0
2018-08-10T01:34:55.553Z,0
2018-08-10T01:35:56.084Z,0
2018-08-10T01:36:56.062Z,0
2018-08-10T01:37:55.782Z,0
2018-08-10T01:38:56.034Z,0
2018-08-10T01:39:56.020Z,0
2018-08-10T01:40:55.747Z,0
2018-08-10T01:41:55.729Z,0
2018-08-10T01:42:55.992Z,0
2018-08-10T01:43:55.972Z,0
2018-08-10T01:44:56.231Z,0
2018-08-10T01:45:56.224Z,0
2018-08-10T01:46:56.196Z,0
2018-08-10T01:47:55.662Z,0
2018-08-10T01:48:56.168Z,0
2018-08-10T01:49:55.373Z,0
2018-08-10T01:50:55.893Z,0
2018-08-10T01:51:55.624Z,0
2018-08-10T01:52:56.134Z,0
2018-08-10T01:53:55.854Z,0
2018-08-10T01:54:55.574Z,0
2018-08-10T01:55:55.831Z,0
2018-08-10T01:56:55.812Z,0
2018-08-10T01:57:56.063Z,0
2018-08-10T01:58:56.057Z,0
2018-08-10T01:59:55.515Z,0
2018-08-10T02:00:55.765Z,0
2018-08-10T02:01:55.232Z,0
2018-08-10T02:02:55.743Z,0
2018-08-10T02:03:55.735Z,0
2018-08-10T02:04:55.453Z,0
2018-08-10T02:05:55.972Z,0
2018-08-10T02:06:55.696Z,0
2018-08-10T02:07:55.683Z,0
2018-08-10T02:08:55.669Z,0
2018-08-10T02:09:55.666Z,0
2018-08-10T02:10:55.911Z,0
2018-08-10T02:11:55.626Z,0
2018-08-10T02:12:55.083Z,0
2018-08-10T02:13:55.602Z,0
2018-08-10T02:14:55.591Z,0
2018-08-10T02:15:55.579Z,0
2018-08-10T02:16:55.038Z,0
2018-08-10T02:17:55.287Z,0
2018-08-10T02:18:55.276Z,0
2018-08-10T02:19:55.798Z,0
2018-08-10T02:20:55.252Z,0
2018-08-10T02:21:55.245Z,0
2018-08-10T02:22:55.499Z,0
2018-08-10T02:23:55.474Z,0
2018-08-10T02:24:55.317Z,0
2018-08-10T02:25:55.461Z,0
2018-08-10T02:26:55.442Z,0
2018-08-10T02:27:55.423Z,0
2018-08-10T02:28:55.687Z,0
2018-08-10T02:29:55.145Z,0
2018-08-10T02:30:55.655Z,0
2018-08-10T02:31:55.660Z,0
2018-08-10T02:32:55.369Z,0
2018-08-10T02:33:55.411Z,0
2018-08-10T02:34:55.293Z,0
2018-08-10T02:35:55.069Z,0
2018-08-10T02:36:55.316Z,0
2018-08-10T02:37:55.580Z,0
2018-08-10T02:38:55.293Z,0
2018-08-10T02:39:55.075Z,0
2018-08-10T02:40:54.742Z,0
2018-08-10T02:41:55.253Z,0
2018-08-10T02:42:55.270Z,0
2018-08-10T02:43:54.974Z,0
2018-08-10T02:44:54.691Z,0
2018-08-10T02:45:55.211Z,0
2018-08-10T02:47:27.021Z,0
2018-08-10T02:47:54.921Z,0
2018-08-10T02:48:54.633Z,0
2018-08-10T02:49:55.421Z,0
2018-08-10T02:50:55.147Z,0
2018-08-10T02:51:55.397Z,0
2018-08-10T02:52:55.117Z,0
2018-08-10T02:53:55.102Z,0
2018-08-10T02:54:55.410Z,0
2018-08-10T02:55:55.084Z,0
2018-08-10T02:56:55.072Z,0
2018-08-10T02:57:55.332Z,0
2018-08-10T02:58:55.309Z,0
2018-08-10T02:59:55.024Z,0
2018-08-10T03:00:54.757Z,0
2018-08-10T03:01:55.266Z,0
2018-08-10T03:02:54.941Z,0
2018-08-10T03:03:54.988Z,0
2018-08-10T03:04:54.754Z,0
2018-08-10T03:05:54.699Z,0
2018-08-10T03:06:55.222Z,0
2018-08-10T03:07:54.931Z,0
2018-08-10T03:08:54.949Z,0
2018-08-10T03:09:54.657Z,0
2018-08-10T03:10:55.162Z,0
2018-08-10T03:11:54.888Z,0
2018-08-10T03:12:54.866Z,0
2018-08-10T03:13:54.841Z,0
2018-08-10T03:14:54.575Z,0
2018-08-10T03:15:54.562Z,0
2018-08-10T03:16:54.806Z,0
2018-08-10T03:17:54.550Z,0
2018-08-10T03:18:54.785Z,0
2018-08-10T03:19:54.829Z,0
2018-08-10T03:20:54.503Z,0
2018-08-10T03:21:55.014Z,0
2018-08-10T03:22:54.742Z,0
2018-08-10T03:23:54.721Z,0
2018-08-10T03:24:55.027Z,0
2018-08-10T03:25:54.483Z,0
2018-08-10T03:26:54.686Z,0
2018-08-10T03:27:54.409Z,0
2018-08-10T03:28:54.701Z,0
2018-08-10T03:29:54.662Z,0
2018-08-10T03:30:54.638Z,0
2018-08-10T03:31:54.623Z,0
2018-08-10T03:32:54.867Z,0
2018-08-10T03:33:54.853Z,0
2018-08-10T03:34:54.582Z,0
2018-08-10T03:35:54.577Z,0
2018-08-10T03:36:54.026Z,4
2018-08-10T03:37:54.541Z,0
2018-08-10T03:38:54.526Z,4
2018-08-10T03:39:54.251Z,4
2018-08-10T03:40:54.241Z,4
2018-08-10T03:41:53.963Z,4
2018-08-10T03:42:54.489Z,4
2018-08-10T03:43:54.727Z,4
2018-08-10T03:44:54.452Z,8
2018-08-10T03:45:54.708Z,8
2018-08-10T03:46:54.163Z,8
2018-08-10T03:47:54.151Z,12
2018-08-10T03:48:54.667Z,12
2018-08-10T03:49:54.731Z,12
2018-08-10T03:50:54.651Z,16
2018-08-10T03:51:54.637Z,20
2018-08-10T03:52:54.102Z,20
2018-08-10T03:53:54.603Z,24
2018-08-10T03:54:54.057Z,28
2018-08-10T03:55:54.316Z,32
2018-08-10T03:56:54.036Z,36
2018-08-10T03:57:54.294Z,40
2018-08-10T03:58:54.283Z,44
2018-08-10T03:59:54.271Z,52
2018-08-10T04:00:54.508Z,56
2018-08-10T04:01:53.710Z,64
2018-08-10T04:02:53.957Z,68
2018-08-10T04:03:54.470Z,76
2018-08-10T04:04:53.928Z,80
2018-08-10T04:05:54.448Z,88
2018-08-10T04:06:53.907Z,104
2018-08-10T04:07:53.893Z,112
2018-08-10T04:08:54.420Z,120
2018-08-10T04:09:54.136Z,128
2018-08-10T04:10:54.126Z,140
2018-08-10T04:11:53.842Z,152
2018-08-10T04:12:54.106Z,164
2018-08-10T04:13:53.814Z,176
2018-08-10T04:14:53.808Z,188
2018-08-10T04:15:54.053Z,200
2018-08-10T04:16:54.052Z,216
2018-08-10T04:17:54.029Z,228
2018-08-10T04:18:53.753Z,240
2018-08-10T04:19:53.736Z,256
2018-08-10T04:20:53.461Z,272
2018-08-10T04:21:54.241Z,288
2018-08-10T04:22:54.225Z,304
2018-08-10T04:23:53.954Z,324
2018-08-10T04:24:54.219Z,340
2018-08-10T04:25:53.935Z,356
2018-08-10T04:26:53.913Z,372
2018-08-10T04:27:53.901Z,388
2018-08-10T04:28:53.636Z,408
2018-08-10T04:29:53.877Z,424
2018-08-10T04:30:53.605Z,448
2018-08-10T04:31:53.584Z,464
2018-08-10T04:32:53.573Z,484
2018-08-10T04:33:53.824Z,500
2018-08-10T04:34:54.014Z,520
2018-08-10T04:35:53.530Z,540
2018-08-10T04:36:54.042Z,564
2018-08-10T04:37:53.501Z,584
2018-08-10T04:38:53.499Z,600
2018-08-10T04:39:53.999Z,620
2018-08-10T04:40:53.726Z,640
2018-08-10T04:41:53.716Z,656
2018-08-10T04:42:53.700Z,676
2018-08-10T04:43:53.697Z,700
2018-08-10T04:44:53.946Z,732
2018-08-10T04:45:53.734Z,756
2018-08-10T04:46:53.924Z,772
2018-08-10T04:47:53.377Z,792
2018-08-10T04:48:53.630Z,808
2018-08-10T04:49:53.615Z,824
2018-08-10T04:50:53.863Z,840
2018-08-10T04:51:53.596Z,860
2018-08-10T04:52:53.573Z,876
2018-08-10T04:53:53.829Z,884
2018-08-10T04:54:53.553Z,896
2018-08-10T04:55:53.532Z,908
2018-08-10T04:56:53.261Z,928
2018-08-10T04:57:53.809Z,944
2018-08-10T04:58:53.756Z,960
2018-08-10T04:59:53.222Z,972
2018-08-10T05:00:53.211Z,984
2018-08-10T05:01:53.454Z,992
2018-08-10T05:02:53.456Z,1008
2018-08-10T05:03:53.722Z,1024
2018-08-10T05:04:53.681Z,1032
2018-08-10T05:05:53.144Z,1040
2018-08-10T05:06:53.656Z,1052
2018-08-10T05:07:53.386Z,1064
2018-08-10T05:08:53.099Z,1080
2018-08-10T05:09:53.761Z,1096
2018-08-10T05:10:53.335Z,1116
2018-08-10T05:11:53.069Z,1132
2018-08-10T05:12:53.320Z,1152
2018-08-10T05:13:52.768Z,1168
2018-08-10T05:14:53.285Z,1172
2018-08-10T05:15:53.635Z,1176
2018-08-10T05:16:53.002Z,1188
2018-08-10T05:17:53.243Z,1204
2018-08-10T05:18:53.228Z,1228
2018-08-10T05:19:52.953Z,1264
2018-08-10T05:20:53.219Z,1320
2018-08-10T05:21:53.189Z,1320
2018-08-10T05:22:52.655Z,1312
2018-08-10T05:23:52.910Z,1252
2018-08-10T05:24:53.183Z,1260
2018-08-10T05:25:53.299Z,1268
2018-08-10T05:26:52.865Z,1292
2018-08-10T05:27:53.117Z,1316
2018-08-10T05:28:53.359Z,1316
2018-08-10T05:29:53.434Z,1324
2018-08-10T05:30:53.338Z,1336
2018-08-10T05:31:52.795Z,1336
2018-08-10T05:32:53.311Z,1336
2018-08-10T05:33:53.036Z,1352
2018-08-10T05:34:53.270Z,1352
2018-08-10T05:35:52.489Z,1364
2018-08-10T05:36:52.995Z,1380
2018-08-10T05:37:52.718Z,1384
2018-08-10T05:38:52.447Z,1384
2018-08-10T05:39:52.697Z,1396
2018-08-10T05:40:52.684Z,1404
2018-08-10T05:41:52.409Z,1408
2018-08-10T05:42:52.920Z,1420
2018-08-10T05:43:52.955Z,1432
2018-08-10T05:44:52.899Z,1436
2018-08-10T05:45:52.893Z,1444
2018-08-10T05:46:53.085Z,1452
2018-08-10T05:47:52.631Z,1460
2018-08-10T05:48:52.850Z,1472
2018-08-10T05:49:52.588Z,1484
2018-08-10T05:50:52.359Z,1492
2018-08-10T05:51:52.807Z,1488
2018-08-10T05:52:52.534Z,1492
2018-08-10T05:53:53.066Z,1516
2018-08-10T05:54:53.028Z,1520
2018-08-10T05:55:52.749Z,1536
2018-08-10T05:56:52.753Z,1548
2018-08-10T05:57:52.727Z,1560
2018-08-10T05:58:52.472Z,1560
2018-08-10T05:59:52.706Z,1576
2018-08-10T06:00:53.529Z,1584
2018-08-10T06:01:52.420Z,1588
2018-08-10T06:02:52.663Z,1596
2018-08-10T06:03:53.418Z,1600
2018-08-10T06:04:52.381Z,1608
2018-08-10T06:05:52.632Z,1612
2018-08-10T06:06:52.881Z,1616
2018-08-10T06:07:52.071Z,1636
2018-08-10T06:08:52.848Z,1640
2018-08-10T06:09:52.323Z,1652
2018-08-10T06:10:52.555Z,1656
2018-08-10T06:11:52.023Z,1668
2018-08-10T06:12:52.817Z,1672
2018-08-10T06:13:52.785Z,1680
2018-08-10T06:14:52.246Z,1700
2018-08-10T06:15:52.993Z,1700
2018-08-10T06:16:52.220Z,1696
2018-08-10T06:17:52.208Z,1712
2018-08-10T06:18:52.735Z,1724
2018-08-10T06:19:52.250Z,1736
2018-08-10T06:20:52.444Z,1744
2018-08-10T06:21:52.165Z,1816
2018-08-10T06:22:52.197Z,1872
2018-08-10T06:23:52.139Z,1828
2018-08-10T06:24:52.142Z,1856
2018-08-10T06:25:52.370Z,1868
2018-08-10T06:26:52.627Z,1984
2018-08-10T06:27:52.658Z,2104
2018-08-10T06:28:52.739Z,1912
2018-08-10T06:29:52.617Z,1920
2018-08-10T06:30:52.581Z,1924
2018-08-10T06:31:51.777Z,1904
2018-08-10T06:32:52.292Z,1908
2018-08-10T06:33:52.142Z,1964
2018-08-10T06:34:52.731Z,2032
2018-08-10T06:35:51.983Z,2032
2018-08-10T06:36:52.507Z,2132
2018-08-10T06:37:51.702Z,2232
2018-08-10T06:38:52.210Z,1984
2018-08-10T06:39:52.348Z,1988
2018-08-10T06:40:52.199Z,1960
2018-08-10T06:41:52.176Z,1976
2018-08-10T06:42:52.163Z,1812
2018-08-10T06:43:51.883Z,1876
2018-08-10T06:44:52.071Z,1936
2018-08-10T06:45:52.131Z,1960
2018-08-10T06:46:52.123Z,1996
2018-08-10T06:47:52.379Z,2168
2018-08-10T06:48:52.089Z,2108
2018-08-10T06:49:52.077Z,2080
2018-08-10T06:50:51.803Z,2120
2018-08-10T06:51:52.056Z,2088
2018-08-10T06:52:51.779Z,2160
2018-08-10T06:53:52.031Z,2236
2018-08-10T06:54:51.755Z,2480
2018-08-10T06:55:52.044Z,2264
2018-08-10T06:56:51.988Z,2128
2018-08-10T06:57:51.715Z,2152
2018-08-10T06:58:51.972Z,2280
2018-08-10T06:59:51.965Z,2484
2018-08-10T07:00:52.171Z,3200
2018-08-10T07:01:52.218Z,4608
2018-08-10T07:02:52.199Z,4704
2018-08-10T07:03:51.380Z,4208
2018-08-10T07:04:51.899Z,4016
2018-08-10T07:05:51.634Z,2900
2018-08-10T07:06:51.868Z,3592
2018-08-10T07:07:52.052Z,4232
2018-08-10T07:08:51.857Z,4464
2018-08-10T07:09:52.101Z,4428
2018-08-10T07:10:51.556Z,4216
2018-08-10T07:11:51.563Z,3684
2018-08-10T07:12:51.533Z,3500
2018-08-10T07:13:51.824Z,3696
2018-08-10T07:14:51.517Z,3884
2018-08-10T07:15:51.778Z,3640
2018-08-10T07:16:51.500Z,3148
2018-08-10T07:17:51.766Z,2584
2018-08-10T07:18:52.003Z,2428
2018-08-10T07:19:51.726Z,2560
2018-08-10T07:20:51.462Z,2692
2018-08-10T07:21:51.169Z,2672
2018-08-10T07:22:51.159Z,3024
2018-08-10T07:23:51.408Z,3472
2018-08-10T07:24:51.945Z,3640
2018-08-10T07:25:51.921Z,4216
2018-08-10T07:26:51.658Z,4100
2018-08-10T07:27:51.368Z,3696
2018-08-10T07:28:51.614Z,3096
2018-08-10T07:29:51.886Z,3304
2018-08-10T07:30:51.365Z,3808
2018-08-10T07:31:51.617Z,3492
2018-08-10T07:32:51.581Z,3152
2018-08-10T07:33:51.558Z,3256
2018-08-10T07:34:51.553Z,3436
2018-08-10T07:35:51.542Z,3832
2018-08-10T07:36:51.276Z,4804
2018-08-10T07:37:51.253Z,4880
2018-08-10T07:38:50.987Z,4828
2018-08-10T07:39:51.491Z,5092
2018-08-10T07:40:51.758Z,3544
2018-08-10T07:41:51.469Z,4420
2018-08-10T07:42:51.466Z,4700
2018-08-10T07:43:51.450Z,5480
2018-08-10T07:44:51.445Z,5624
2018-08-10T07:45:51.166Z,5684
2018-08-10T07:46:51.691Z,6312
2018-08-10T07:47:51.413Z,6388
2018-08-10T07:48:51.663Z,6352
2018-08-10T07:49:51.395Z,6468
2018-08-10T07:50:51.640Z,8008
2018-08-10T07:51:51.673Z,10368
2018-08-10T07:52:51.089Z,9644
2018-08-10T07:53:51.617Z,8056
2018-08-10T07:54:51.336Z,7612
2018-08-10T07:55:51.332Z,8072
2018-08-10T07:56:51.574Z,7352
2018-08-10T07:57:51.037Z,7908
2018-08-10T07:58:51.337Z,7968
2018-08-10T07:59:51.018Z,8828
2018-08-10T08:00:51.534Z,9160
2018-08-10T08:01:51.000Z,10260
2018-08-10T08:02:50.987Z,11040
2018-08-10T08:03:50.721Z,11820
2018-08-10T08:04:51.239Z,12304
2018-08-10T08:05:51.219Z,11664
2018-08-10T08:06:51.548Z,10288
2018-08-10T08:07:51.465Z,10568
2018-08-10T08:08:51.201Z,11088
2018-08-10T08:09:51.544Z,11572
2018-08-10T08:10:51.173Z,11340
2018-08-10T08:11:51.167Z,10388
2018-08-10T08:12:51.417Z,10048
2018-08-10T08:13:51.556Z,11056
2018-08-10T08:14:51.399Z,10552
2018-08-10T08:15:51.121Z,11568
2018-08-10T08:16:51.113Z,11388
2018-08-10T08:17:51.162Z,9900
2018-08-10T08:18:51.099Z,10260
2018-08-10T08:19:51.199Z,21056
2018-08-10T08:20:51.085Z,10084
2018-08-10T08:21:51.073Z,8748
2018-08-10T08:22:51.338Z,8184
2018-08-10T08:23:51.055Z,7332
2018-08-10T08:24:51.316Z,5924
2018-08-10T08:25:51.035Z,5172
2018-08-10T08:26:51.029Z,4720
2018-08-10T08:27:51.015Z,4284
2018-08-10T08:28:51.004Z,3792
2018-08-10T08:29:51.321Z,3768
2018-08-10T08:30:50.988Z,3832
2018-08-10T08:31:50.979Z,5124
2018-08-10T08:32:50.975Z,24128
2018-08-10T08:33:51.227Z,11524
2018-08-10T08:34:51.603Z,8316
2018-08-10T08:35:50.675Z,5612
2018-08-10T08:36:50.750Z,4052
2018-08-10T08:37:50.933Z,5636
2018-08-10T08:38:50.652Z,8044
2018-08-10T08:39:51.165Z,7728
2018-08-10T08:40:51.060Z,7324
2018-08-10T08:41:51.173Z,7212
2018-08-10T08:42:50.613Z,11796
2018-08-10T08:43:50.600Z,4552
2018-08-10T08:44:50.599Z,9492
2018-08-10T08:45:52.352Z,9576
2018-08-10T08:46:50.855Z,7808
2018-08-10T08:47:50.562Z,7844
2018-08-10T08:48:50.556Z,7896
2018-08-10T08:49:50.560Z,7032
2018-08-10T08:50:51.062Z,6504
2018-08-10T08:51:50.556Z,7712
2018-08-10T08:52:51.040Z,10936
2018-08-10T08:53:50.868Z,10676
2018-08-10T08:54:50.763Z,9524
2018-08-10T08:55:50.754Z,7036
2018-08-10T08:56:50.475Z,7212
2018-08-10T08:57:50.469Z,7560
2018-08-10T08:58:50.725Z,5320
2018-08-10T08:59:50.456Z,5912
2018-08-10T09:00:50.715Z,6548
2018-08-10T09:01:50.704Z,7684
2018-08-10T09:02:50.686Z,14000
2018-08-10T09:03:50.427Z,7264
2018-08-10T09:04:50.143Z,10668
2018-08-10T09:05:50.663Z,8416
2018-08-10T09:06:50.654Z,8140
2018-08-10T09:07:50.598Z,9228
2018-08-10T09:08:50.626Z,9136
2018-08-10T09:09:50.891Z,8732
2018-08-10T09:10:50.620Z,8192
2018-08-10T09:11:50.895Z,7100
2018-08-10T09:12:50.596Z,6900
2018-08-10T09:13:50.853Z,6072
2018-08-10T09:14:50.608Z,5724
2018-08-10T09:15:50.580Z,5128
2018-08-10T09:16:50.850Z,4564
2018-08-10T09:17:50.974Z,4268
2018-08-10T09:18:50.323Z,4588
2018-08-10T09:19:50.277Z,5208
2018-08-10T09:20:50.300Z,5480
2018-08-10T09:21:50.551Z,6428
2018-08-10T09:22:50.504Z,6912
2018-08-10T09:23:50.489Z,6960
2018-08-10T09:24:49.963Z,7872
2018-08-10T09:25:50.742Z,6796
2018-08-10T09:26:50.511Z,6524
2018-08-10T09:27:50.478Z,8140
2018-08-10T09:28:50.741Z,8696
2018-08-10T09:29:50.206Z,8404
2018-08-10T09:30:50.194Z,8652
2018-08-10T09:31:50.170Z,9936
2018-08-10T09:32:50.670Z,11220
2018-08-10T09:33:50.419Z,11196
2018-08-10T09:34:50.411Z,10896
2018-08-10T09:35:50.649Z,9932
2018-08-10T09:36:50.643Z,7356
2018-08-10T09:37:50.389Z,5624
2018-08-10T09:38:50.104Z,5592
2018-08-10T09:39:50.347Z,6292
2018-08-10T09:40:50.337Z,7988
2018-08-10T09:41:50.609Z,9396
2018-08-10T09:42:50.328Z,8848
2018-08-10T09:43:50.054Z,8744
2018-08-10T09:44:50.316Z,9272
2018-08-10T09:45:50.562Z,8852
2018-08-10T09:46:50.286Z,9072
2018-08-10T09:47:50.021Z,10496
2018-08-10T09:48:50.537Z,10668
2018-08-10T09:49:50.263Z,9120
2018-08-10T09:50:50.255Z,10248
2018-08-10T09:51:49.860Z,8000
2018-08-10T09:52:49.971Z,8888
2018-08-10T09:53:50.239Z,8732
2018-08-10T09:54:49.960Z,9940
2018-08-10T09:55:50.487Z,9896
2018-08-10T09:56:49.935Z,10716
2018-08-10T09:57:50.600Z,11620
2018-08-10T09:58:49.929Z,11304
2018-08-10T09:59:50.582Z,11276
2018-08-10T10:00:50.183Z,9512
2018-08-10T10:01:50.219Z,9032
2018-08-10T10:02:50.151Z,9168
2018-08-10T10:03:50.171Z,9368
2018-08-10T10:04:50.409Z,9368
2018-08-10T10:05:50.425Z,8828
2018-08-10T10:06:50.130Z,7772
2018-08-10T10:07:49.857Z,6860
2018-08-10T10:08:50.126Z,7064
2018-08-10T10:09:50.106Z,8000
2018-08-10T10:10:50.380Z,9344
2018-08-10T10:11:50.091Z,11768
2018-08-10T10:12:50.076Z,20384
2018-08-10T10:13:50.084Z,13668
2018-08-10T10:14:50.069Z,11400
2018-08-10T10:15:50.330Z,10676
2018-08-10T10:16:50.309Z,9708
2018-08-10T10:17:50.327Z,10988
2018-08-10T10:18:50.030Z,8740
2018-08-10T10:19:50.019Z,9068
2018-08-10T10:20:50.060Z,9216
2018-08-10T10:21:49.745Z,10208
2018-08-10T10:22:50.307Z,27200
2018-08-10T10:23:50.042Z,10056
2018-08-10T10:24:49.989Z,13272
2018-08-10T10:25:50.247Z,16064
2018-08-10T10:26:50.227Z,16192
2018-08-10T10:27:49.696Z,21728
2018-08-10T10:28:49.683Z,20096
2018-08-10T10:29:49.680Z,18560
2018-08-10T10:30:49.684Z,81952
2018-08-10T10:31:49.952Z,20224
2018-08-10T10:32:49.753Z,78720
2018-08-10T10:33:50.180Z,82560
2018-08-10T10:34:50.514Z,35264
2018-08-10T10:35:49.649Z,32160
2018-08-10T10:36:49.381Z,99296
2018-08-10T10:37:49.364Z,78592
2018-08-10T10:38:49.896Z,87328
2018-08-10T10:39:49.888Z,9960
2018-08-10T10:40:49.893Z,53696
2018-08-10T10:41:50.141Z,59360
2018-08-10T10:42:49.906Z,75360
2018-08-10T10:43:50.139Z,68640
2018-08-10T10:44:49.880Z,9480
2018-08-10T10:45:49.886Z,5756
2018-08-10T10:46:49.909Z,4724
2018-08-10T10:47:49.909Z,4304
2018-08-10T10:48:49.584Z,4108
2018-08-10T10:49:49.594Z,4532
2018-08-10T10:50:49.914Z,5180
2018-08-10T10:51:50.108Z,5508
2018-08-10T10:52:49.568Z,5056
2018-08-10T10:53:49.832Z,5372
2018-08-10T10:54:49.561Z,3792
2018-08-10T10:55:49.830Z,4592
2018-08-10T10:56:50.348Z,9376
2018-08-10T10:57:49.819Z,73888
2018-08-10T10:58:50.067Z,73056
2018-08-10T10:59:49.808Z,76160
2018-08-10T11:00:49.549Z,81536
2018-08-10T11:01:50.066Z,88352
2018-08-10T11:02:49.518Z,96288
2018-08-10T11:03:49.797Z,101728
2018-08-10T11:04:49.767Z,103328
2018-08-10T11:05:49.808Z,104128
2018-08-10T11:06:49.771Z,102368
2018-08-10T11:07:49.234Z,79232
2018-08-10T11:08:49.760Z,86592
2018-08-10T11:09:49.226Z,91456
2018-08-10T11:10:49.766Z,95008
2018-08-10T11:11:50.045Z,12264
2018-08-10T11:12:49.487Z,14456
2018-08-10T11:13:49.785Z,22624
2018-08-10T11:14:50.021Z,13196
2018-08-10T11:15:49.222Z,15140
2018-08-10T11:16:50.012Z,92480
2018-08-10T11:17:50.014Z,97504
2018-08-10T11:18:49.480Z,100768
2018-08-10T11:19:49.479Z,47808
2018-08-10T11:20:49.528Z,8352
2018-08-10T11:21:50.008Z,8188
2018-08-10T11:22:49.756Z,39008
2018-08-10T11:23:50.007Z,11740
2018-08-10T11:24:49.471Z,8832
2018-08-10T11:25:49.698Z,6968
2018-08-10T11:26:50.010Z,5696
2018-08-10T11:27:49.739Z,5128
2018-08-10T11:28:49.463Z,4816
2018-08-10T11:29:49.989Z,4444
2018-08-10T11:30:49.993Z,4264
2018-08-10T11:31:49.726Z,3888
2018-08-10T11:32:49.715Z,3528
2018-08-10T11:33:49.721Z,3440
2018-08-10T11:34:49.715Z,3484
2018-08-10T11:35:49.711Z,3748
2018-08-10T11:36:49.971Z,4512
2018-08-10T11:37:49.709Z,5776
2018-08-10T11:38:49.698Z,7520
2018-08-10T11:39:49.955Z,10020
2018-08-10T11:40:49.952Z,19328
2018-08-10T11:41:49.951Z,83488
2018-08-10T11:42:49.415Z,78176
2018-08-10T11:43:49.932Z,79456
2018-08-10T11:44:49.726Z,84576
2018-08-10T11:45:49.663Z,90848
2018-08-10T11:46:49.654Z,96320
2018-08-10T11:47:49.657Z,98592
2018-08-10T11:48:49.116Z,98464
2018-08-10T11:49:49.650Z,94528
2018-08-10T11:50:49.650Z,90112
2018-08-10T11:51:49.896Z,88256
2018-08-10T11:52:49.635Z,22432
2018-08-10T11:53:49.895Z,20000
2018-08-10T11:54:49.367Z,79200
2018-08-10T11:55:49.658Z,64224
2018-08-10T11:56:49.660Z,48288
2018-08-10T11:57:49.895Z,93696
2018-08-10T11:58:49.883Z,22240
2018-08-10T11:59:49.666Z,35808
2018-08-10T12:00:49.886Z,31520
2018-08-10T12:01:50.008Z,36928
2018-08-10T12:02:49.616Z,17760
2018-08-10T12:03:49.360Z,15988
2018-08-10T12:04:49.352Z,100384
2018-08-10T12:05:49.811Z,14604
2018-08-10T12:06:49.878Z,9592
2018-08-10T12:07:49.350Z,8712
2018-08-10T12:08:49.615Z,9724
2018-08-10T12:09:49.608Z,12948
2018-08-10T12:10:49.864Z,9064
2018-08-10T12:11:49.597Z,8524
2018-08-10T12:12:49.478Z,30208
2018-08-10T12:13:49.604Z,87232
2018-08-10T12:14:49.324Z,86688
2018-08-10T12:15:49.335Z,83584
2018-08-10T12:16:49.321Z,81152
2018-08-10T12:17:49.846Z,6820
2018-08-10T12:18:49.315Z,7240
2018-08-10T12:19:49.321Z,10008
2018-08-10T12:20:49.579Z,13348
2018-08-10T12:21:49.336Z,14432
2018-08-10T12:22:49.582Z,55488
2018-08-10T12:23:49.828Z,79648
2018-08-10T12:24:50.240Z,81152
2018-08-10T12:25:49.299Z,82464
2018-08-10T12:26:49.061Z,86400
2018-08-10T12:27:49.297Z,88928
2018-08-10T12:28:49.288Z,88672
2018-08-10T12:29:49.612Z,87328
2018-08-10T12:30:49.556Z,90976
2018-08-10T12:31:49.290Z,64448
2018-08-10T12:32:49.553Z,12904
2018-08-10T12:33:49.559Z,87968
2018-08-10T12:34:50.033Z,97152
2018-08-10T12:35:49.283Z,15716
2018-08-10T12:36:49.823Z,11408
2018-08-10T12:37:49.817Z,13312
2018-08-10T12:38:49.560Z,10324
2018-08-10T12:39:49.553Z,13140
2018-08-10T12:40:49.285Z,35712
2018-08-10T12:41:49.023Z,10232
2018-08-10T12:42:49.812Z,6900
2018-08-10T12:43:49.279Z,4992
2018-08-10T12:44:49.811Z,4496
2018-08-10T12:45:49.310Z,4732
2018-08-10T12:46:49.283Z,5396
2018-08-10T12:47:49.760Z,7444
2018-08-10T12:48:49.010Z,20672
2018-08-10T12:49:49.538Z,75008
2018-08-10T12:50:49.799Z,62400
2018-08-10T12:51:49.272Z,10424
2018-08-10T12:52:49.253Z,7880
2018-08-10T12:53:49.780Z,7184
2018-08-10T12:54:49.515Z,7088
2018-08-10T12:55:49.789Z,12176
2018-08-10T12:56:49.779Z,9500
2018-08-10T12:57:49.511Z,10732
2018-08-10T12:58:49.265Z,16736
2018-08-10T12:59:49.764Z,16960
2018-08-10T13:00:49.995Z,16012
2018-08-10T13:01:49.531Z,89568
2018-08-10T13:02:49.938Z,95840
2018-08-10T13:03:49.494Z,16448
2018-08-10T13:04:49.772Z,17088
2018-08-10T13:05:48.945Z,23232
2018-08-10T13:06:49.223Z,30240
2018-08-10T13:07:49.208Z,45888
2018-08-10T13:08:49.506Z,83616
2018-08-10T13:09:49.464Z,81824
2018-08-10T13:10:50.110Z,84448
2018-08-10T13:11:49.485Z,62560
2018-08-10T13:12:49.720Z,10628
2018-08-10T13:13:49.448Z,8164
2018-08-10T13:14:49.731Z,6344
2018-08-10T13:15:49.701Z,5668
2018-08-10T13:16:49.700Z,6640
2018-08-10T13:17:49.431Z,7432
2018-08-10T13:18:49.699Z,9452
2018-08-10T13:19:49.430Z,21952
2018-08-10T13:20:49.166Z,24128
2018-08-10T13:21:49.165Z,18528
2018-08-10T13:22:49.150Z,17600
2018-08-10T13:23:49.522Z,62048
2018-08-10T13:24:49.410Z,14216
2018-08-10T13:25:49.405Z,13068
2018-08-10T13:26:49.136Z,93472
2018-08-10T13:27:49.660Z,89824
2018-08-10T13:28:48.870Z,89696
2018-08-10T13:29:49.657Z,34880
2018-08-10T13:30:49.384Z,25024
2018-08-10T13:31:48.861Z,11556
2018-08-10T13:32:49.113Z,12164
2018-08-10T13:33:49.371Z,84768
2018-08-10T13:34:49.394Z,101024
2018-08-10T13:35:49.628Z,79008
2018-08-10T13:36:48.848Z,96128
2018-08-10T13:37:49.373Z,39552